createdAt,value
2018-07-06T00:02:30.629Z,96.78
2018-07-06T00:05:10.432Z,97.92
2018-07-06T00:07:50.414Z,97.97
2018-07-06T00:10:30.582Z,97.52
2018-07-06T00:13:10.523Z,96.93
2018-07-06T00:15:52.058Z,96.24
2018-07-06T00:18:32.378Z,95.32
2018-07-06T00:21:12.228Z,95.16
2018-07-06T00:23:52.491Z,96.70
2018-07-06T00:26:32.584Z,96.69
2018-07-06T00:29:12.507Z,95.99
2018-07-06T00:31:52.392Z,96.43
2018-07-06T00:34:33.309Z,96.14
2018-07-06T00:37:13.247Z,96.48
2018-07-06T00:39:53.332Z,97.15
2018-07-06T00:42:33.360Z,98.50
2018-07-06T00:45:13.429Z,97.24
2018-07-06T00:47:53.885Z,98.52
2018-07-06T00:50:33.930Z,97.75
2018-07-06T00:53:14.195Z,97.57
2018-07-06T00:55:54.322Z,97.67
2018-07-06T00:58:34.823Z,97.94
2018-07-06T01:01:14.624Z,97.34
2018-07-06T01:03:54.614Z,96.92
2018-07-06T01:06:34.721Z,97.21
2018-07-06T01:09:14.714Z,97.95
2018-07-06T01:11:54.611Z,97.05
2018-07-06T01:14:34.616Z,98.71
2018-07-06T01:17:16.567Z,98.63
2018-07-06T01:19:57.383Z,97.99
2018-07-06T01:22:38.295Z,96.91
2018-07-06T01:25:18.549Z,97.97
2018-07-06T01:27:58.452Z,98.15
2018-07-06T01:30:38.416Z,98.62
2018-07-06T01:33:18.363Z,98.70
2018-07-06T01:35:58.316Z,97.92
2018-07-06T01:38:38.416Z,97.49
2018-07-06T01:41:18.405Z,97.40
2018-07-06T01:43:58.258Z,97.16
2018-07-06T01:46:38.643Z,96.77
2018-07-06T01:49:18.905Z,96.73
2018-07-06T01:51:59.035Z,97.76
2018-07-06T01:54:39.208Z,97.47
2018-07-06T01:57:19.782Z,98.17
2018-07-06T01:59:59.746Z,98.61
2018-07-06T02:02:40.159Z,98.32
2018-07-06T02:05:20.245Z,99.21
2018-07-06T02:08:00.168Z,98.35
2018-07-06T02:10:40.360Z,98.50
2018-07-06T02:13:20.312Z,98.42
2018-07-06T02:16:00.499Z,97.95
2018-07-06T02:18:40.742Z,98.33
2018-07-06T02:21:20.758Z,98.40
2018-07-06T02:24:01.717Z,97.59
2018-07-06T02:26:41.585Z,98.78
2018-07-06T02:29:21.539Z,100.00
2018-07-06T02:32:01.685Z,99.85
2018-07-06T02:34:42.035Z,99.19
2018-07-06T02:37:22.294Z,98.30
2018-07-06T02:40:02.470Z,98.76
2018-07-06T02:42:42.657Z,98.28
2018-07-06T02:45:22.674Z,98.42
2018-07-06T02:48:02.730Z,97.79
2018-07-06T02:50:42.641Z,98.62
2018-07-06T02:53:23.130Z,98.07
2018-07-06T02:56:03.406Z,97.91
2018-07-06T02:58:43.427Z,99.96
2018-07-06T03:01:23.509Z,99.67
2018-07-06T03:04:03.647Z,99.26
2018-07-06T03:06:43.561Z,98.82
2018-07-06T03:09:23.548Z,99.20
2018-07-06T03:12:03.602Z,99.03
2018-07-06T03:14:43.398Z,98.47
2018-07-06T03:17:23.938Z,98.49
2018-07-06T03:20:03.927Z,98.83
2018-07-06T03:22:44.878Z,99.36
2018-07-06T03:25:25.114Z,99.16
2018-07-06T03:28:05.056Z,98.13
2018-07-06T03:30:44.799Z,98.49
2018-07-06T03:33:25.358Z,97.38
2018-07-06T03:36:05.396Z,99.05
2018-07-06T03:38:45.527Z,98.57
2018-07-06T03:41:25.644Z,98.76
2018-07-06T03:44:05.988Z,99.68
2018-07-06T03:46:46.131Z,98.27
2018-07-06T03:49:26.182Z,98.23
2018-07-06T03:52:06.212Z,98.01
2018-07-06T03:54:47.026Z,97.94
2018-07-06T03:57:27.171Z,98.39
2018-07-06T04:00:07.138Z,98.41
2018-07-06T04:02:47.147Z,99.44
2018-07-06T04:05:27.211Z,99.41
2018-07-06T04:08:07.116Z,96.18
2018-07-06T04:10:47.137Z,98.87
2018-07-06T04:13:27.278Z,98.90
2018-07-06T04:16:07.484Z,99.76
2018-07-06T04:18:47.421Z,100.00
2018-07-06T04:21:27.453Z,99.20
2018-07-06T04:24:07.513Z,98.83
2018-07-06T04:26:47.455Z,99.71
2018-07-06T04:29:27.693Z,100.00
2018-07-06T04:32:07.724Z,99.50
2018-07-06T04:34:47.912Z,99.03
2018-07-06T04:37:27.659Z,99.12
2018-07-06T04:40:07.698Z,99.44
2018-07-06T04:42:47.517Z,97.91
2018-07-06T04:45:27.299Z,94.41
2018-07-06T04:48:07.545Z,93.23
2018-07-06T04:50:47.793Z,95.75
2018-07-06T04:53:28.164Z,95.09
2018-07-06T04:56:08.195Z,95.46
2018-07-06T04:58:48.087Z,95.95
2018-07-06T05:01:28.140Z,97.57
2018-07-06T05:04:07.960Z,95.28
2018-07-06T05:06:48.234Z,93.29
2018-07-06T05:09:28.154Z,95.01
2018-07-06T05:12:08.174Z,96.33
2018-07-06T05:14:48.303Z,94.98
2018-07-06T05:17:28.412Z,94.49
2018-07-06T05:20:08.612Z,93.62
2018-07-06T05:22:48.722Z,93.09
2018-07-06T05:25:29.133Z,94.23
2018-07-06T05:28:09.304Z,97.07
2018-07-06T05:30:49.379Z,98.16
2018-07-06T05:33:30.165Z,99.21
2018-07-06T05:36:10.413Z,99.28
2018-07-06T05:38:50.598Z,99.33
2018-07-06T05:41:31.184Z,100.00
2018-07-06T05:44:11.331Z,98.94
2018-07-06T05:46:51.344Z,99.18
2018-07-06T05:49:32.558Z,99.02
2018-07-06T05:52:12.620Z,98.52
2018-07-06T05:54:52.765Z,98.29
2018-07-06T05:57:32.854Z,99.79
2018-07-06T06:00:13.028Z,99.70
2018-07-06T06:02:52.957Z,100.00
2018-07-06T06:05:32.839Z,100.00
2018-07-06T06:08:00.799Z,100.00
2018-07-06T06:10:30.264Z,99.60
2018-07-06T06:12:59.723Z,99.45
2018-07-06T06:15:29.210Z,98.77
2018-07-06T06:17:59.183Z,100.00
2018-07-06T06:20:28.667Z,99.29
2018-07-06T06:22:58.202Z,98.89
2018-07-06T06:25:28.604Z,98.51
2018-07-06T06:27:57.971Z,98.01
2018-07-06T06:30:27.432Z,98.62
2018-07-06T06:32:56.830Z,99.33
2018-07-06T06:35:26.471Z,99.82
2018-07-06T06:37:56.668Z,100.00
2018-07-06T06:40:26.130Z,99.15
2018-07-06T06:42:55.612Z,99.96
2018-07-06T06:45:25.067Z,98.65
2018-07-06T06:47:54.588Z,98.32
2018-07-06T06:50:24.175Z,98.47
2018-07-06T06:52:53.683Z,99.02
2018-07-06T06:55:23.201Z,98.39
2018-07-06T06:57:52.631Z,98.24
2018-07-06T07:00:27.484Z,99.35
2018-07-06T07:02:51.601Z,96.50
2018-07-06T07:05:21.113Z,97.10
2018-07-06T07:07:50.710Z,97.68
2018-07-06T07:10:20.133Z,97.63
2018-07-06T07:12:49.744Z,97.69
2018-07-06T07:15:19.166Z,97.63
2018-07-06T07:17:49.382Z,98.28
2018-07-06T07:20:18.692Z,98.39
2018-07-06T07:22:48.063Z,97.36
2018-07-06T07:25:17.461Z,96.96
2018-07-06T07:27:46.846Z,97.65
2018-07-06T07:30:16.859Z,97.34
2018-07-06T07:32:46.605Z,96.55
2018-07-06T07:35:16.358Z,97.51
2018-07-06T07:37:46.000Z,98.66
2018-07-06T07:40:15.343Z,97.10
2018-07-06T07:42:44.962Z,93.96
2018-07-06T07:45:14.363Z,95.46
2018-07-06T07:47:43.726Z,95.19
2018-07-06T07:50:13.147Z,95.02
2018-07-06T07:52:53.252Z,94.85
2018-07-06T07:55:22.955Z,95.00
2018-07-06T07:57:52.414Z,92.03
2018-07-06T08:00:21.897Z,91.96
2018-07-06T08:02:51.088Z,92.62
2018-07-06T08:05:20.628Z,94.76
2018-07-06T08:07:51.054Z,93.10
2018-07-06T08:10:21.267Z,93.53
2018-07-06T08:12:50.850Z,92.14
2018-07-06T08:15:20.395Z,92.51
2018-07-06T08:17:49.821Z,92.79
2018-07-06T08:20:19.301Z,92.05
2018-07-06T08:22:48.606Z,93.31
2018-07-06T08:25:18.138Z,93.87
2018-07-06T08:27:47.954Z,92.07
2018-07-06T08:30:17.393Z,92.08
2018-07-06T08:32:47.240Z,91.05
2018-07-06T08:35:28.445Z,91.60
2018-07-06T08:38:02.845Z,92.81
2018-07-06T08:40:32.351Z,92.99
2018-07-06T08:43:03.633Z,94.40
2018-07-06T08:45:34.367Z,94.89
2018-07-06T08:48:05.289Z,93.45
2018-07-06T08:50:34.674Z,95.88
2018-07-06T08:53:04.646Z,95.26
2018-07-06T08:55:35.001Z,96.97
2018-07-06T08:58:04.484Z,96.94
2018-07-06T09:00:34.042Z,94.31
2018-07-06T09:03:03.437Z,95.59
2018-07-06T09:05:32.823Z,97.15
2018-07-06T09:08:02.445Z,97.32
2018-07-06T09:10:31.678Z,97.40
2018-07-06T09:13:01.130Z,96.97
2018-07-06T09:15:32.143Z,98.11
2018-07-06T09:18:02.077Z,98.23
2018-07-06T09:20:31.566Z,98.74
2018-07-06T09:23:01.929Z,97.17
2018-07-06T09:25:31.457Z,92.21
2018-07-06T09:28:00.921Z,93.91
2018-07-06T09:30:30.489Z,93.08
2018-07-06T09:33:00.068Z,93.09
2018-07-06T09:35:29.495Z,96.48
2018-07-06T09:37:58.830Z,96.06
2018-07-06T09:40:28.668Z,97.70
2018-07-06T09:42:58.114Z,95.22
2018-07-06T09:45:27.582Z,97.35
2018-07-06T09:47:57.102Z,96.36
2018-07-06T09:50:27.819Z,97.71
2018-07-06T09:52:57.188Z,96.24
2018-07-06T09:55:26.858Z,94.13
2018-07-06T09:57:56.227Z,97.03
2018-07-06T10:00:30.647Z,92.65
2018-07-06T10:03:00.097Z,92.98
2018-07-06T10:05:30.426Z,92.74
2018-07-06T10:08:01.076Z,91.44
2018-07-06T10:10:30.395Z,94.17
2018-07-06T10:13:00.932Z,94.11
2018-07-06T10:15:32.732Z,93.52
2018-07-06T10:18:02.074Z,90.88
2018-07-06T10:20:31.702Z,90.81
2018-07-06T10:23:01.075Z,92.96
2018-07-06T10:25:30.363Z,93.87
2018-07-06T10:28:13.905Z,94.44
2018-07-06T10:31:23.522Z,95.56
2018-07-06T10:33:52.680Z,93.31
2018-07-06T10:36:21.923Z,95.17
2018-07-06T10:38:51.303Z,94.51
2018-07-06T10:41:20.817Z,94.64
2018-07-06T10:43:50.442Z,95.17
2018-07-06T10:46:19.599Z,95.82
2018-07-06T10:48:48.884Z,95.13
2018-07-06T10:51:18.057Z,94.49
2018-07-06T10:53:48.781Z,93.83
2018-07-06T10:56:17.963Z,93.34
2018-07-06T10:58:47.932Z,89.20
2018-07-06T11:01:17.407Z,92.11
2018-07-06T11:03:46.840Z,94.89
2018-07-06T11:06:16.282Z,95.54
2018-07-06T11:08:46.596Z,89.86
2018-07-06T11:11:16.059Z,91.18
2018-07-06T11:13:45.635Z,94.25
2018-07-06T11:16:15.988Z,93.73
2018-07-06T11:18:45.282Z,93.32
2018-07-06T11:21:15.255Z,94.56
2018-07-06T11:23:44.866Z,94.91
2018-07-06T11:26:14.910Z,96.51
2018-07-06T11:28:44.322Z,96.06
2018-07-06T11:31:14.678Z,96.08
2018-07-06T11:33:44.699Z,95.70
2018-07-06T11:36:14.090Z,94.17
2018-07-06T11:38:43.537Z,92.51
2018-07-06T11:41:13.116Z,93.37
2018-07-06T11:43:42.514Z,94.30
2018-07-06T11:46:11.814Z,94.00
2018-07-06T11:48:41.286Z,92.79
2018-07-06T11:51:10.812Z,92.27
2018-07-06T11:53:40.174Z,92.12
2018-07-06T11:56:09.791Z,92.51
2018-07-06T11:58:39.262Z,92.37
2018-07-06T12:01:08.650Z,93.51
2018-07-06T12:03:38.179Z,93.47
2018-07-06T12:06:08.295Z,93.12
2018-07-06T12:08:37.909Z,94.42
2018-07-06T12:11:07.140Z,93.94
2018-07-06T12:13:36.937Z,92.59
2018-07-06T12:16:06.274Z,94.06
2018-07-06T12:18:35.777Z,94.36
2018-07-06T12:21:05.302Z,95.19
2018-07-06T12:23:34.648Z,94.68
2018-07-06T12:26:04.111Z,94.83
2018-07-06T12:28:33.587Z,96.41
2018-07-06T12:31:03.111Z,95.59
2018-07-06T12:33:32.402Z,93.73
2018-07-06T12:36:01.913Z,93.66
2018-07-06T12:38:31.393Z,94.06
2018-07-06T12:41:00.824Z,94.75
2018-07-06T12:43:31.119Z,94.22
2018-07-06T12:46:01.500Z,94.06
2018-07-06T12:48:31.826Z,93.24
2018-07-06T12:51:01.253Z,94.40
2018-07-06T12:53:30.710Z,93.53
2018-07-06T12:56:00.285Z,92.92
2018-07-06T12:58:29.882Z,93.42
2018-07-06T13:00:59.481Z,91.30
2018-07-06T13:03:28.937Z,92.16
2018-07-06T13:05:58.503Z,93.06
2018-07-06T13:08:27.841Z,92.59
2018-07-06T13:10:57.142Z,92.83
2018-07-06T13:13:26.660Z,92.66
2018-07-06T13:15:56.082Z,93.29
2018-07-06T13:18:25.731Z,93.23
2018-07-06T13:20:55.599Z,93.97
2018-07-06T13:23:24.818Z,92.84
2018-07-06T13:25:54.239Z,94.78
2018-07-06T13:28:24.211Z,93.18
2018-07-06T13:30:53.893Z,92.77
2018-07-06T13:33:23.762Z,92.35
2018-07-06T13:35:53.157Z,92.91
2018-07-06T13:38:22.662Z,92.66
2018-07-06T13:40:51.985Z,93.55
2018-07-06T13:43:21.366Z,93.12
2018-07-06T13:45:50.816Z,93.60
2018-07-06T13:48:20.382Z,93.13
2018-07-06T13:50:50.220Z,92.64
2018-07-06T13:53:19.905Z,93.45
2018-07-06T13:55:49.469Z,92.77
2018-07-06T13:58:18.898Z,93.61
2018-07-06T14:00:48.324Z,93.34
2018-07-06T14:03:18.039Z,92.16
2018-07-06T14:05:47.553Z,92.12
2018-07-06T14:08:17.006Z,93.00
2018-07-06T14:10:46.449Z,92.67
2018-07-06T14:13:15.899Z,92.10
2018-07-06T14:15:45.079Z,91.60
2018-07-06T14:18:14.450Z,89.79
2018-07-06T14:20:43.778Z,90.15
2018-07-06T14:23:13.089Z,88.69
2018-07-06T14:25:42.498Z,86.49
2018-07-06T14:28:11.927Z,88.55
2018-07-06T14:30:41.261Z,91.19
2018-07-06T14:33:10.795Z,91.74
2018-07-06T14:35:40.332Z,91.38
2018-07-06T14:38:09.756Z,91.92
2018-07-06T14:40:39.218Z,91.21
2018-07-06T14:43:08.665Z,87.69
2018-07-06T14:45:38.035Z,90.02
2018-07-06T14:48:07.630Z,91.22
2018-07-06T14:50:37.076Z,90.99
2018-07-06T14:53:09.226Z,92.16
2018-07-06T14:55:39.148Z,91.70
2018-07-06T14:58:08.799Z,89.30
2018-07-06T15:00:39.693Z,91.02
2018-07-06T15:03:09.309Z,89.93
2018-07-06T15:05:38.719Z,88.36
2018-07-06T15:08:08.507Z,90.38
2018-07-06T15:10:39.441Z,91.93
2018-07-06T15:13:09.018Z,91.99
2018-07-06T15:15:38.538Z,89.55
2018-07-06T15:18:08.006Z,91.64
2018-07-06T15:20:37.438Z,91.58
2018-07-06T15:23:07.323Z,92.09
2018-07-06T15:25:36.705Z,93.32
2018-07-06T15:28:06.560Z,93.40
2018-07-06T15:30:36.039Z,92.74
2018-07-06T15:33:07.778Z,92.04
2018-07-06T15:35:37.249Z,90.33
2018-07-06T15:38:06.769Z,91.91
2018-07-06T15:40:37.420Z,91.79
2018-07-06T15:43:07.293Z,92.90
2018-07-06T15:45:36.611Z,92.76
2018-07-06T15:48:06.265Z,93.75
2018-07-06T15:50:36.168Z,92.84
2018-07-06T15:53:05.632Z,93.86
2018-07-06T15:55:35.894Z,94.04
2018-07-06T15:58:05.675Z,92.43
2018-07-06T16:00:35.745Z,91.97
2018-07-06T16:03:06.884Z,92.29
2018-07-06T16:05:36.463Z,93.24
2018-07-06T16:08:06.003Z,93.60
2018-07-06T16:10:35.565Z,94.54
2018-07-06T16:13:05.106Z,94.03
2018-07-06T16:15:35.145Z,93.78
2018-07-06T16:18:04.641Z,93.50
2018-07-06T16:20:34.204Z,93.74
2018-07-06T16:23:03.620Z,95.31
2018-07-06T16:25:33.135Z,94.54
2018-07-06T16:28:03.305Z,94.21
2018-07-06T16:30:32.800Z,94.57
2018-07-06T16:33:02.819Z,94.56
2018-07-06T16:35:32.406Z,94.45
2018-07-06T16:38:01.859Z,94.70
2018-07-06T16:40:31.716Z,94.54
2018-07-06T16:43:01.695Z,94.34
2018-07-06T16:45:31.320Z,94.09
2018-07-06T16:48:01.053Z,94.74
2018-07-06T16:50:30.777Z,95.42
2018-07-06T16:53:00.162Z,95.03
2018-07-06T16:55:29.725Z,95.08
2018-07-06T16:57:59.495Z,95.21
2018-07-06T17:00:29.772Z,95.87
2018-07-06T17:02:59.232Z,96.42
2018-07-06T17:05:29.367Z,95.78
2018-07-06T17:07:58.890Z,93.98
2018-07-06T17:10:28.363Z,96.12
2018-07-06T17:12:58.188Z,95.49
2018-07-06T17:15:28.780Z,95.72
2018-07-06T17:17:58.277Z,96.54
2018-07-06T17:20:27.674Z,96.71
2018-07-06T17:22:57.166Z,97.04
2018-07-06T17:25:26.584Z,96.48
2018-07-06T17:27:56.099Z,98.11
2018-07-06T17:30:25.743Z,97.56
2018-07-06T17:32:55.045Z,97.57
2018-07-06T17:35:24.444Z,98.02
2018-07-06T17:37:54.102Z,97.87
2018-07-06T17:40:23.769Z,96.23
2018-07-06T17:42:53.216Z,97.41
2018-07-06T17:45:22.717Z,96.89
2018-07-06T17:47:52.520Z,96.15
2018-07-06T17:50:22.052Z,96.66
2018-07-06T17:52:51.496Z,96.56
2018-07-06T17:55:20.988Z,97.14
2018-07-06T17:57:50.574Z,98.07
2018-07-06T18:00:20.055Z,97.65
2018-07-06T18:02:50.086Z,97.30
2018-07-06T18:05:19.486Z,97.85
2018-07-06T18:07:49.362Z,98.98
2018-07-06T18:10:18.796Z,98.72
2018-07-06T18:12:49.322Z,99.44
2018-07-06T18:15:19.309Z,99.35
2018-07-06T18:17:48.778Z,99.25
2018-07-06T18:20:18.415Z,98.44
2018-07-06T18:22:48.129Z,97.89
2018-07-06T18:25:17.455Z,97.38
2018-07-06T18:27:46.893Z,98.38
2018-07-06T18:30:16.307Z,98.01
2018-07-06T18:32:45.688Z,97.67
2018-07-06T18:35:15.052Z,97.83
2018-07-06T18:37:44.550Z,97.73
2018-07-06T18:40:14.462Z,99.11
2018-07-06T18:42:43.957Z,98.57
2018-07-06T18:45:13.413Z,98.16
2018-07-06T18:47:42.924Z,98.83
2018-07-06T18:50:13.476Z,98.73
2018-07-06T18:52:43.850Z,99.26
2018-07-06T18:55:13.281Z,99.36
2018-07-06T18:57:43.343Z,99.38
2018-07-06T19:00:12.836Z,99.19
2018-07-06T19:02:42.535Z,99.42
2018-07-06T19:05:12.887Z,98.43
2018-07-06T19:07:43.493Z,99.14
2018-07-06T19:10:13.108Z,99.35
2018-07-06T19:12:43.068Z,99.29
2018-07-06T19:15:12.464Z,99.23
2018-07-06T19:17:41.957Z,98.78
2018-07-06T19:20:11.502Z,99.56
2018-07-06T19:22:41.103Z,99.61
2018-07-06T19:25:10.699Z,100.00
2018-07-06T19:27:40.361Z,99.57
2018-07-06T19:30:09.589Z,98.88
2018-07-06T19:32:39.336Z,99.72
2018-07-06T19:35:10.548Z,99.75
2018-07-06T19:37:40.009Z,99.67
2018-07-06T19:40:09.623Z,100.00
2018-07-06T19:42:39.073Z,100.00
2018-07-06T19:45:08.797Z,99.72
2018-07-06T19:47:38.170Z,100.00
2018-07-06T19:50:07.796Z,100.00
2018-07-06T19:52:37.206Z,100.00
2018-07-06T19:55:08.102Z,100.00
2018-07-06T19:57:37.590Z,100.00
2018-07-06T20:00:06.976Z,100.00
2018-07-06T20:02:37.471Z,100.00
2018-07-06T20:05:06.865Z,100.00
2018-07-06T20:07:35.910Z,100.00
2018-07-06T20:10:05.252Z,100.00
2018-07-06T20:12:34.305Z,100.00
2018-07-06T20:15:03.606Z,100.00
2018-07-06T20:17:32.976Z,100.00
2018-07-06T20:20:02.470Z,100.00
2018-07-06T20:22:32.227Z,100.00
2018-07-06T20:25:01.911Z,100.00
2018-07-06T20:27:32.095Z,100.00
2018-07-06T20:30:01.855Z,100.00
2018-07-06T20:32:31.130Z,100.00
2018-07-06T20:35:00.621Z,100.00
2018-07-06T20:37:29.725Z,100.00
2018-07-06T20:40:00.471Z,100.00
2018-07-06T20:42:29.947Z,100.00
2018-07-06T20:44:59.041Z,100.00
2018-07-06T20:47:29.300Z,100.00
2018-07-06T20:49:58.579Z,100.00
2018-07-06T20:52:27.906Z,100.00
2018-07-06T20:54:59.251Z,100.00
2018-07-06T20:57:29.757Z,100.00
2018-07-06T20:59:59.285Z,100.00
2018-07-06T21:02:28.939Z,100.00
2018-07-06T21:04:58.621Z,100.00
2018-07-06T21:07:28.101Z,100.00
2018-07-06T21:09:57.701Z,100.00
2018-07-06T21:12:26.917Z,100.00
2018-07-06T21:14:56.081Z,100.00
2018-07-06T21:17:25.864Z,100.00
2018-07-06T21:19:54.971Z,100.00
2018-07-06T21:22:25.400Z,100.00
2018-07-06T21:24:54.804Z,100.00
2018-07-06T21:27:23.920Z,100.00
2018-07-06T21:29:53.143Z,100.00
2018-07-06T21:32:22.425Z,100.00
2018-07-06T21:34:51.668Z,100.00
2018-07-06T21:37:20.953Z,100.00
2018-07-06T21:39:50.453Z,100.00
2018-07-06T21:42:21.467Z,100.00
2018-07-06T21:44:50.710Z,100.00
2018-07-06T21:47:20.358Z,100.00
2018-07-06T21:49:49.886Z,100.00
2018-07-06T21:52:19.257Z,100.00
2018-07-06T21:54:48.742Z,100.00
2018-07-06T21:57:18.108Z,100.00
2018-07-06T21:59:47.201Z,100.00
2018-07-06T22:02:17.279Z,100.00
2018-07-06T22:04:47.974Z,100.00
2018-07-06T22:07:17.934Z,100.00
2018-07-06T22:09:47.433Z,100.00
2018-07-06T22:12:17.665Z,100.00
2018-07-06T22:14:46.783Z,100.00
2018-07-06T22:17:16.172Z,100.00
2018-07-06T22:19:45.441Z,100.00
2018-07-06T22:22:14.693Z,100.00
2018-07-06T22:24:44.087Z,100.00
2018-07-06T22:27:14.135Z,100.00
2018-07-06T22:29:44.563Z,100.00
2018-07-06T22:32:13.992Z,100.00
2018-07-06T22:34:43.446Z,100.00
2018-07-06T22:37:12.816Z,100.00
2018-07-06T22:39:42.141Z,100.00
2018-07-06T22:42:12.721Z,100.00
2018-07-06T22:44:42.217Z,100.00
2018-07-06T22:47:12.435Z,100.00
2018-07-06T22:49:41.813Z,100.00
2018-07-06T22:52:11.068Z,100.00
2018-07-06T22:54:40.488Z,100.00
2018-07-06T22:57:09.925Z,100.00
2018-07-06T22:59:39.366Z,100.00
2018-07-06T23:02:09.099Z,100.00
2018-07-06T23:04:38.330Z,100.00
2018-07-06T23:07:07.814Z,100.00
2018-07-06T23:09:37.033Z,100.00
2018-07-06T23:12:06.444Z,100.00
2018-07-06T23:14:35.954Z,100.00
2018-07-06T23:17:05.321Z,100.00
2018-07-06T23:19:34.646Z,100.00
2018-07-06T23:22:04.092Z,100.00
2018-07-06T23:24:33.529Z,100.00
2018-07-06T23:27:02.622Z,100.00
2018-07-06T23:29:31.891Z,100.00
2018-07-06T23:32:01.844Z,100.00
2018-07-06T23:34:31.380Z,100.00
2018-07-06T23:37:00.743Z,99.87
2018-07-06T23:39:30.306Z,100.00
2018-07-06T23:41:59.500Z,100.00
2018-07-06T23:44:28.947Z,100.00
2018-07-06T23:46:58.134Z,100.00
2018-07-06T23:49:27.486Z,100.00
2018-07-06T23:51:56.724Z,100.00
2018-07-06T23:54:26.123Z,100.00
2018-07-06T23:56:55.429Z,100.00
2018-07-06T23:59:24.664Z,100.00
